Time;durP1;ratioP1;P1;durP2;ratioP2;P2;SDS_P1;SDS_P2;PMS_P1;PMS_P2;Temp;Humidity;BMP_temperature;BMP_pressure;BME280_temperature;BME280_humidity;BME280_pressure;Samples;Min_cycle;Max_cycle;Signal;HPM_P1;HPM_P2
2022/06/20 04:03:46;;;;;;;;;;;;;;;27.47;40.89;96489.91;4264916;27;10362;-72
2022/06/20 04:05:53;;;;;;;;;;;;;;;27.70;40.44;96492.66;4266419;27;6431;-72
2022/06/20 04:08:02;;;;;;;;;;;;;;;27.83;40.22;96497.19;4265606;27;5624;-72
2022/06/20 04:12:51;;;;;;;;;;;;;;;28.15;39.86;96504.25;4228028;28;5652;-72
2022/06/20 04:14:59;;;;;;;;;;;;;;;28.23;39.52;96495.34;4229971;28;5643;-72
2022/06/20 04:19:36;;;;;;;;;;;;;;;28.43;39.17;96499.44;4223183;28;5843;-73
2022/06/20 04:21:44;;;;;;;;;;;;;;;28.48;38.96;96502.00;4195865;28;5847;-73
2022/06/20 04:23:55;;;;;;;;;;;;;;;28.51;38.98;96495.94;4212637;28;5719;-71
2022/06/20 04:26:05;;;;;;;;;;;;;;;28.53;38.66;96498.31;4195879;28;5708;-71
2022/06/20 04:28:15;;;;;;;;;;;;;;;28.59;38.57;96497.06;4217866;28;5667;-72
2022/06/20 04:30:25;;;;;;;;;;;;;;;28.58;38.60;96500.91;4229497;28;5667;-72
2022/06/20 04:32:35;;;;;;;;;;;;;;;28.58;38.37;96512.59;4229549;28;5687;-72
2022/06/20 04:34:43;;;;;;;;;;;;;;;28.62;38.27;96508.13;4212716;28;5673;-73
2022/06/20 04:36:54;;;;;;;;;;;;;;;28.65;38.25;96506.69;4228700;28;6348;-75
2022/06/20 04:39:03;;;;;;;;;;;;;;;28.66;37.97;96514.53;4228365;28;5742;-73
2022/06/20 04:41:12;;;;;;;;;;;;;;;28.67;37.83;96509.91;4229523;28;5635;-73
2022/06/20 04:43:20;;;;;;;;;;;;;;;28.68;37.84;96514.22;4227868;28;5821;-73
2022/06/20 04:45:27;;;;;;;;;;;;;;;28.70;37.69;96525.59;4227655;28;5667;-73
2022/06/20 04:47:39;;;;;;;;;;;;;;;28.70;37.66;96525.59;4247840;27;5744;-73
2022/06/20 04:49:43;;;;;;;;;;;;;;;28.71;37.55;96521.75;4248603;27;5731;-72
2022/06/20 04:51:49;;;;;;;;;;;;;;;28.71;37.40;96521.75;4248101;27;5748;-74
2022/06/20 04:53:52;;;;;;;;;;;;;;;28.69;37.61;96526.72;4254559;27;5600;-73
2022/06/20 04:55:58;;;;;;;;;;;;;;;28.68;37.46;96527.81;4253885;27;5080;-73
2022/06/20 04:58:05;;;;;;;;;;;;;;;28.74;37.05;96531.19;4254895;27;5712;-72
2022/06/20 05:00:19;;;;;;;;;;;;;;;28.74;37.15;96521.09;4262315;27;5669;-62
2022/06/20 05:02:24;;;;;;;;;;;;;;;28.76;37.08;96527.03;4248511;27;5856;-62
2022/06/20 05:04:32;;;;;;;;;;;;;;;28.78;36.96;96534.91;4253344;27;5621;-63
2022/06/20 05:06:39;;;;;;;;;;;;;;;28.81;36.75;96532.34;4236872;28;5780;-63
2022/06/20 05:08:49;;;;;;;;;;;;;;;28.79;36.52;96523.69;4250568;27;5591;-63
2022/06/20 05:10:57;;;;;;;;;;;;;;;28.78;36.55;96526.75;4253686;27;5633;-62
2022/06/20 05:13:06;;;;;;;;;;;;;;;28.78;36.43;96535.69;4250149;27;5770;-62
2022/06/20 05:15:15;;;;;;;;;;;;;;;28.80;36.57;96524.50;4249706;27;5812;-65
2022/06/20 05:17:22;;;;;;;;;;;;;;;28.77;36.50;96528.66;4238814;27;5769;-65
2022/06/20 05:19:31;;;;;;;;;;;;;;;28.75;36.59;96532.78;4241145;27;5665;-64
2022/06/20 05:21:40;;;;;;;;;;;;;;;28.72;36.58;96536.94;4243967;27;5799;-64
2022/06/20 05:23:46;;;;;;;;;;;;;;;28.75;36.47;96527.34;4243224;27;5730;-63
2022/06/20 05:25:49;;;;;;;;;;;;;;;28.78;36.35;96538.41;4235901;28;6318;-63
2022/06/20 05:27:56;;;;;;;;;;;;;;;28.79;36.41;96540.00;4235682;27;5638;-63
2022/06/20 05:30:01;;;;;;;;;;;;;;;28.82;36.32;96539.38;4242060;27;6627;-63
2022/06/20 05:32:09;;;;;;;;;;;;;;;28.88;36.26;96540.88;4250558;27;5503;-63
2022/06/20 05:34:18;;;;;;;;;;;;;;;28.97;36.26;96547.13;4242608;27;7131;-64
2022/06/20 05:36:26;;;;;;;;;;;;;;;29.03;36.14;96544.25;4241343;27;5642;-64
2022/06/20 05:38:35;;;;;;;;;;;;;;;29.05;35.99;96547.47;4243974;27;5603;-64
2022/06/20 05:40:43;;;;;;;;;;;;;;;29.11;36.01;96557.06;4247789;27;5635;-70
2022/06/20 05:42:46;;;;;;;;;;;;;;;29.20;35.88;96547.00;4240029;27;5658;-70
2022/06/20 05:44:49;;;;;;;;;;;;;;;29.34;35.82;96550.38;4251994;27;5728;-69
2022/06/20 05:46:59;;;;;;;;;;;;;;;29.48;35.55;96551.06;4244720;27;5640;-70
2022/06/20 05:49:06;;;;;;;;;;;;;;;29.66;35.55;96559.19;4249248;27;5763;-70
2022/06/20 05:51:10;;;;;;;;;;;;;;;29.77;35.32;96552.31;4251457;27;5620;-70
2022/06/20 05:53:24;;;;;;;;;;;;;;;29.85;35.27;96565.13;4248749;27;5621;-70
2022/06/20 05:55:36;;;;;;;;;;;;;;;29.93;35.09;96566.25;4244116;27;5596;-70
2022/06/20 05:57:43;;;;;;;;;;;;;;;29.98;35.15;96564.13;4252612;27;5632;-70
2022/06/20 05:59:49;;;;;;;;;;;;;;;30.01;34.93;96568.94;4256485;27;5626;-70
2022/06/20 06:01:55;;;;;;;;;;;;;;;30.03;34.92;96572.16;4252085;27;5734;-70
2022/06/20 06:04:05;;;;;;;;;;;;;;;30.02;35.06;96581.47;4252643;27;5771;-70
2022/06/20 06:06:16;;;;;;;;;;;;;;;30.05;34.99;96575.34;4235742;27;6359;-70
2022/06/20 06:08:25;;;;;;;;;;;;;;;30.05;34.93;96575.34;4249975;27;5605;-69
2022/06/20 06:10:57;;;;;;;;;;;;;;;30.05;34.78;96585.47;4248042;27;5640;-70
2022/06/20 06:13:10;;;;;;;;;;;;;;;30.06;34.90;96573.47;4251246;27;5141;-70
2022/06/20 06:15:16;;;;;;;;;;;;;;;30.11;34.60;96584.19;4242681;27;6321;-70
2022/06/20 06:17:25;;;;;;;;;;;;;;;30.08;34.64;96590.28;4247554;27;5703;-71
2022/06/20 06:19:49;;;;;;;;;;;;;;;30.10;34.68;96594.28;4235333;27;5741;-70
2022/06/20 06:21:54;;;;;;;;;;;;;;;30.09;34.42;96598.13;4239064;27;5589;-69
2022/06/20 06:24:00;;;;;;;;;;;;;;;30.12;34.42;96593.97;4246767;27;5652;-70
2022/06/20 06:26:04;;;;;;;;;;;;;;;30.11;34.23;96598.59;4243473;27;5666;-70
2022/06/20 06:28:13;;;;;;;;;;;;;;;30.11;34.25;96600.53;4246019;27;5699;-69
2022/06/20 06:30:20;;;;;;;;;;;;;;;30.11;34.12;96606.78;4252234;27;5632;-70
2022/06/20 06:32:29;;;;;;;;;;;;;;;30.11;34.21;96600.53;4250499;27;5656;-70
2022/06/20 06:34:40;;;;;;;;;;;;;;;30.17;34.17;96609.34;4252128;27;5723;-69
2022/06/20 06:36:46;;;;;;;;;;;;;;;30.20;33.92;96604.06;4235410;27;5620;-69
2022/06/20 06:38:53;;;;;;;;;;;;;;;30.23;34.17;96599.88;4234696;27;5613;-70
2022/06/20 06:41:01;;;;;;;;;;;;;;;30.26;33.96;96607.41;4234619;27;5525;-70
2022/06/20 06:43:21;;;;;;;;;;;;;;;30.27;33.79;96603.56;4251694;27;5707;-70
2022/06/20 06:45:27;;;;;;;;;;;;;;;30.28;33.85;96605.16;4245148;27;5727;-70
2022/06/20 06:47:38;;;;;;;;;;;;;;;30.31;33.75;96609.97;4244635;27;5739;-70
2022/06/20 06:49:44;;;;;;;;;;;;;;;30.30;33.73;96613.81;4251941;27;5753;-70
2022/06/20 06:51:53;;;;;;;;;;;;;;;30.31;33.73;96613.50;4252048;27;5656;-70
2022/06/20 06:54:02;;;;;;;;;;;;;;;30.34;33.47;96615.56;4250419;27;5757;-70
2022/06/20 06:56:13;;;;;;;;;;;;;;;30.39;33.46;96615.41;4234638;27;5624;-70
2022/06/20 06:58:22;;;;;;;;;;;;;;;30.41;33.47;96624.06;4234485;28;5736;-70
2022/06/20 07:00:33;;;;;;;;;;;;;;;30.44;33.34;96630.78;4241510;27;5623;-70
2022/06/20 07:02:41;;;;;;;;;;;;;;;30.47;33.32;96627.41;4248292;27;5704;-70
2022/06/20 07:04:51;;;;;;;;;;;;;;;30.51;33.17;96636.53;4247461;27;5859;-70
2022/06/20 07:07:00;;;;;;;;;;;;;;;30.52;33.31;96632.69;4242269;27;5808;-70
2022/06/20 07:09:11;;;;;;;;;;;;;;;30.49;33.16;96638.81;4235985;27;5674;-70
2022/06/20 07:11:21;;;;;;;;;;;;;;;30.47;33.06;96646.50;4248938;27;5647;-70
2022/06/20 07:13:35;;;;;;;;;;;;;;;30.42;33.27;96641.22;4237666;27;5888;-70
2022/06/20 07:15:39;;;;;;;;;;;;;;;30.29;33.27;96642.22;4245101;27;5628;-70
2022/06/20 07:17:48;;;;;;;;;;;;;;;30.21;33.18;96648.47;4250717;27;5639;-70
2022/06/20 07:19:52;;;;;;;;;;;;;;;30.12;33.20;96643.81;4247934;27;6364;-70
2022/06/20 07:21:58;;;;;;;;;;;;;;;30.12;33.32;96643.03;4234426;27;5645;-70
2022/06/20 07:24:05;;;;;;;;;;;;;;;30.13;33.18;96644.66;4234050;27;5662;-70
2022/06/20 07:26:12;;;;;;;;;;;;;;;30.10;33.21;96643.34;4234096;27;5696;-70
2022/06/20 07:28:23;;;;;;;;;;;;;;;30.12;33.00;96646.56;4248958;27;5640;-70
2022/06/20 07:30:32;;;;;;;;;;;;;;;30.12;33.11;96641.09;4251318;27;5656;-70
2022/06/20 07:32:48;;;;;;;;;;;;;;;30.09;33.15;96647.19;4251374;27;5853;-70
2022/06/20 07:35:00;;;;;;;;;;;;;;;30.04;33.24;96639.16;4250734;27;5683;-69
2022/06/20 07:37:11;;;;;;;;;;;;;;;29.98;33.18;96640.44;4245488;27;5111;-71
2022/06/20 07:39:22;;;;;;;;;;;;;;;29.96;33.21;96639.97;4246318;27;5674;-68
2022/06/20 07:41:30;;;;;;;;;;;;;;;29.94;33.17;96641.41;4238746;27;5709;-70
2022/06/20 07:43:38;;;;;;;;;;;;;;;29.91;33.29;96642.88;4250742;27;5631;-70
2022/06/20 07:45:46;;;;;;;;;;;;;;;29.85;33.23;96644.94;4235238;27;5764;-70
2022/06/20 07:47:53;;;;;;;;;;;;;;;29.88;33.23;96640.78;4243180;27;5823;-72
2022/06/20 07:50:00;;;;;;;;;;;;;;;29.90;33.25;96646.72;4247240;27;5620;-71
2022/06/20 07:52:09;;;;;;;;;;;;;;;29.95;33.06;96646.53;4250578;27;5606;-71
2022/06/20 07:54:17;;;;;;;;;;;;;;;29.99;33.14;96647.50;4237965;27;5706;-76
2022/06/20 07:56:26;;;;;;;;;;;;;;;29.99;33.07;96642.03;4234824;28;5793;-65
2022/06/20 07:58:33;;;;;;;;;;;;;;;30.02;32.93;96646.88;4250339;27;5640;-65
2022/06/20 08:00:41;;;;;;;;;;;;;;;29.99;32.99;96647.50;4250943;27;5870;-65
2022/06/20 08:02:49;;;;;;;;;;;;;;;29.98;32.87;96656.78;4234145;27;5646;-65
2022/06/20 08:04:58;;;;;;;;;;;;;;;29.99;32.94;96652.94;4240360;27;5704;-65
2022/06/20 08:07:06;;;;;;;;;;;;;;;29.98;32.94;96647.81;4241125;27;6124;-65
2022/06/20 08:09:17;;;;;;;;;;;;;;;29.99;33.10;96650.22;4251072;27;5671;-65
2022/06/20 08:11:42;;;;;;;;;;;;;;;30.02;32.92;96651.53;4250046;27;5628;-65
2022/06/20 08:13:51;;;;;;;;;;;;;;;30.01;32.89;96653.41;4250134;27;5733;-65
2022/06/20 08:16:00;;;;;;;;;;;;;;;29.94;33.05;96650.41;4244372;27;5631;-65
2022/06/20 08:18:05;;;;;;;;;;;;;;;29.94;33.08;96649.59;4251128;27;5644;-65
2022/06/20 08:20:09;;;;;;;;;;;;;;;29.96;32.99;96656.31;4245543;27;5633;-65
2022/06/20 08:22:18;;;;;;;;;;;;;;;29.93;32.92;96654.25;4247246;27;5821;-65
2022/06/20 08:24:28;;;;;;;;;;;;;;;29.92;33.06;96651.84;4237656;27;5646;-65
2022/06/20 08:26:43;;;;;;;;;;;;;;;29.93;32.83;96651.53;4237664;27;5624;-66
2022/06/20 08:28:51;;;;;;;;;;;;;;;29.92;32.94;96657.28;4251275;27;6267;-65
2022/06/20 08:31:01;;;;;;;;;;;;;;;29.94;32.81;96665.94;4250451;27;5643;-65
2022/06/20 08:33:14;;;;;;;;;;;;;;;29.96;32.86;96666.44;4251209;27;5628;-64
2022/06/20 08:35:22;;;;;;;;;;;;;;;29.92;32.87;96658.09;4239731;27;5669;-64
2022/06/20 08:37:31;;;;;;;;;;;;;;;29.91;32.65;96666.59;4244173;27;5705;-65
2022/06/20 08:39:35;;;;;;;;;;;;;;;29.92;32.80;96663.53;4252371;27;5722;-65
2022/06/20 08:42:08;;;;;;;;;;;;;;;29.92;32.75;96658.09;4253981;27;5621;-65
2022/06/20 08:44:40;;;;;;;;;;;;;;;29.92;32.79;96646.41;4234350;28;5684;-64
2022/06/20 08:47:19;;;;;;;;;;;;;;;29.93;32.50;96643.34;4248796;27;5745;-65
2022/06/20 08:49:55;;;;;;;;;;;;;;;29.95;32.76;96651.19;4237087;27;5762;-64
2022/06/20 08:52:28;;;;;;;;;;;;;;;29.93;32.47;96654.25;4242711;27;6907;-65
2022/06/20 08:54:58;;;;;;;;;;;;;;;29.92;32.61;96657.28;4180043;28;5753;-65
2022/06/20 08:57:07;;;;;;;;;;;;;;;29.94;32.49;96649.59;4179888;28;5741;-65
2022/06/20 08:59:26;;;;;;;;;;;;;;;29.97;32.42;96649.75;4179005;28;5758;-65
2022/06/20 09:01:39;;;;;;;;;;;;;;;29.99;32.37;96650.22;4169825;28;5740;-66
2022/06/20 09:04:17;;;;;;;;;;;;;;;29.97;32.46;96652.47;4183524;28;5800;-65
2022/06/20 09:06:47;;;;;;;;;;;;;;;29.92;32.47;96649.94;4176860;28;5741;-65
2022/06/20 09:09:21;;;;;;;;;;;;;;;29.93;32.35;96648.00;4169799;28;5889;-65
2022/06/20 09:11:40;;;;;;;;;;;;;;;29.94;32.52;96644.94;4183880;28;5801;-65
2022/06/20 09:14:08;;;;;;;;;;;;;;;29.96;32.52;96641.91;4167593;28;8493;-65
2022/06/20 09:16:20;;;;;;;;;;;;;;;30.00;32.25;96649.09;4176350;28;6014;-65
2022/06/20 09:18:43;;;;;;;;;;;;;;;30.02;32.39;96651.53;4175861;28;5892;-65
2022/06/20 09:20:58;;;;;;;;;;;;;;;30.04;32.45;96652.00;4184152;28;5740;-65
2022/06/20 09:23:14;;;;;;;;;;;;;;;30.02;32.32;96646.88;4183371;28;5741;-66
2022/06/20 09:25:33;;;;;;;;;;;;;;;30.02;32.36;96641.44;4184093;28;6429;-66
2022/06/20 09:27:47;;;;;;;;;;;;;;;30.04;32.23;96638.38;4166748;28;6451;-66
2022/06/20 09:30:04;;;;;;;;;;;;;;;30.08;32.30;96640.16;4184393;28;5756;-65
2022/06/20 09:32:38;;;;;;;;;;;;;;;30.10;32.38;96640.63;4209929;28;5642;-64
2022/06/20 09:35:07;;;;;;;;;;;;;;;30.09;32.14;96633.56;4243490;27;5586;-65
2022/06/20 09:37:39;;;;;;;;;;;;;;;30.13;32.11;96631.81;4250794;27;5913;-65
2022/06/20 09:39:55;;;;;;;;;;;;;;;30.18;32.12;96639.03;4248396;27;6492;-65
2022/06/20 09:42:05;;;;;;;;;;;;;;;30.20;32.19;96630.50;4236109;27;5665;-64
2022/06/20 09:44:21;;;;;;;;;;;;;;;30.23;32.16;96629.84;4235639;28;5805;-65
2022/06/20 09:46:31;;;;;;;;;;;;;;;30.22;32.17;96629.06;4244962;27;5686;-65
2022/06/20 09:48:45;;;;;;;;;;;;;;;30.24;32.10;96631.47;4252867;27;5756;-65
2022/06/20 09:50:58;;;;;;;;;;;;;;;30.24;32.11;96634.19;4251200;27;5601;-65
2022/06/20 09:53:19;;;;;;;;;;;;;;;30.22;32.14;96631.00;4252257;27;5632;-65
2022/06/20 09:55:30;;;;;;;;;;;;;;;30.23;32.09;96621.69;4246450;27;5807;-65
2022/06/20 09:57:45;;;;;;;;;;;;;;;30.24;32.14;96626.00;4244052;27;5068;-64
2022/06/20 09:59:56;;;;;;;;;;;;;;;30.26;32.17;96619.13;4242819;27;5700;-64
2022/06/20 10:02:12;;;;;;;;;;;;;;;30.28;32.00;96618.81;4251972;27;5660;-65
2022/06/20 10:04:26;;;;;;;;;;;;;;;30.25;31.93;96628.44;4253362;27;5627;-64
2022/06/20 10:06:58;;;;;;;;;;;;;;;30.24;32.06;96610.47;4249390;27;5732;-65
2022/06/20 10:09:11;;;;;;;;;;;;;;;30.26;31.95;96616.41;4252139;27;5636;-64
2022/06/20 10:11:20;;;;;;;;;;;;;;;30.28;32.00;96621.53;4245161;27;5668;-64
2022/06/20 10:13:30;;;;;;;;;;;;;;;30.30;31.73;96611.09;4252569;27;5655;-64
2022/06/20 10:15:40;;;;;;;;;;;;;;;30.34;31.80;96612.03;4251729;27;5626;-64
2022/06/20 10:17:54;;;;;;;;;;;;;;;30.35;31.70;96616.34;4252911;27;5684;-64
2022/06/20 10:20:04;;;;;;;;;;;;;;;30.38;31.74;96611.06;4252217;27;5804;-64
2022/06/20 10:22:12;;;;;;;;;;;;;;;30.42;31.57;96603.03;4252663;27;5636;-64
2022/06/20 10:24:38;;;;;;;;;;;;;;;30.43;31.42;96601.91;4252366;27;5633;-64
2022/06/20 10:27:02;;;;;;;;;;;;;;;30.44;31.45;96598.03;4252643;27;5620;-65
2022/06/20 10:29:18;;;;;;;;;;;;;;;30.45;31.42;96594.19;4251986;27;5683;-64
2022/06/20 10:31:35;;;;;;;;;;;;;;;30.48;31.19;96598.22;4241864;27;5835;-64
2022/06/20 10:33:53;;;;;;;;;;;;;;;30.51;31.13;96597.56;4252205;27;5727;-65
2022/06/20 10:36:14;;;;;;;;;;;;;;;30.55;31.18;96596.56;4235478;28;5641;-65
2022/06/20 10:38:29;;;;;;;;;;;;;;;30.55;30.97;96599.28;4251911;27;5640;-65
2022/06/20 10:40:37;;;;;;;;;;;;;;;30.56;30.87;96595.44;4252407;27;5790;-65
2022/06/20 10:42:54;;;;;;;;;;;;;;;30.58;30.97;96590.47;4252650;27;5579;-65
2022/06/20 10:45:11;;;;;;;;;;;;;;;30.58;30.84;96593.22;4252465;27;5698;-65
2022/06/20 10:47:22;;;;;;;;;;;;;;;30.59;30.69;96583.91;4252248;27;5792;-65
2022/06/20 10:49:43;;;;;;;;;;;;;;;30.60;30.73;96577.31;4249021;27;6424;-65
2022/06/20 10:51:54;;;;;;;;;;;;;;;30.59;30.56;96577.63;4251203;27;5767;-66
2022/06/20 10:54:10;;;;;;;;;;;;;;;30.59;30.69;96583.91;4251529;27;5649;-64
2022/06/20 10:56:29;;;;;;;;;;;;;;;30.61;30.63;96570.72;4252330;27;5788;-64
2022/06/20 10:58:50;;;;;;;;;;;;;;;30.64;30.21;96577.47;4245214;27;5624;-65
2022/06/20 11:00:59;;;;;;;;;;;;;;;30.66;30.55;96578.75;4250963;27;6309;-66
2022/06/20 11:03:31;;;;;;;;;;;;;;;30.68;30.32;96587.41;4243484;27;5637;-66
2022/06/20 11:05:42;;;;;;;;;;;;;;;30.71;30.25;96581.31;4252099;27;5636;-66
2022/06/20 11:07:55;;;;;;;;;;;;;;;30.74;30.17;96576.31;4248979;27;5656;-66
2022/06/20 11:10:10;;;;;;;;;;;;;;;30.77;30.23;96562.81;4233454;28;5605;-66
2022/06/20 11:12:29;;;;;;;;;;;;;;;30.78;29.94;96558.16;4250469;27;5632;-66
2022/06/20 11:14:42;;;;;;;;;;;;;;;30.77;29.97;96562.81;4250900;27;5647;-65
2022/06/20 11:16:55;;;;;;;;;;;;;;;30.77;30.05;96556.56;4252000;27;5794;-65
2022/06/20 11:19:12;;;;;;;;;;;;;;;30.79;29.87;96565.19;4243292;27;5860;-66
2022/06/20 11:21:24;;;;;;;;;;;;;;;30.82;29.96;96567.28;4242039;27;5628;-65
2022/06/20 11:23:34;;;;;;;;;;;;;;;30.83;29.82;96563.44;4250367;27;5691;-66
2022/06/20 11:25:55;;;;;;;;;;;;;;;30.84;29.78;96563.09;4252051;27;5723;-66
2022/06/20 11:28:18;;;;;;;;;;;;;;;30.87;29.70;96561.63;4250500;27;5663;-66
2022/06/20 11:30:33;;;;;;;;;;;;;;;30.90;29.76;96553.56;4251304;27;5795;-66
2022/06/20 11:32:49;;;;;;;;;;;;;;;30.94;29.79;96556.47;4251917;27;5071;-66
2022/06/20 11:35:17;;;;;;;;;;;;;;;30.97;29.51;96555.81;4234895;27;5645;-66
2022/06/20 11:37:32;;;;;;;;;;;;;;;30.98;29.36;96552.75;4234525;27;5649;-66
2022/06/20 11:39:52;;;;;;;;;;;;;;;31.00;29.49;96542.28;4241017;27;5737;-66
2022/06/20 11:41:57;;;;;;;;;;;;;;;31.04;29.33;96550.63;4249313;27;5621;-66
2022/06/20 11:44:38;;;;;;;;;;;;;;;31.07;29.18;96547.22;4238685;27;5640;-66
2022/06/20 11:47:01;;;;;;;;;;;;;;;31.07;29.09;96543.69;4245842;27;5901;-66
2022/06/20 11:49:18;;;;;;;;;;;;;;;31.06;29.48;96536.66;4245250;27;5651;-66
2022/06/20 11:51:27;;;;;;;;;;;;;;;31.07;29.38;96541.78;4247742;27;5738;-66
2022/06/20 11:53:43;;;;;;;;;;;;;;;31.10;29.11;96543.84;4240125;27;5704;-66
2022/06/20 11:55:50;;;;;;;;;;;;;;;31.16;29.27;96541.72;4247989;27;5754;-65
2022/06/20 11:57:59;;;;;;;;;;;;;;;31.18;29.02;96534.00;4250805;27;5680;-65
2022/06/20 12:00:06;;;;;;;;;;;;;;;31.18;29.06;96532.06;4246281;27;5704;-66
2022/06/20 12:02:31;;;;;;;;;;;;;;;31.18;28.85;96526.59;4250378;27;5621;-66
2022/06/20 12:04:39;;;;;;;;;;;;;;;31.19;29.02;96533.69;4234029;27;5602;-66
2022/06/20 12:07:10;;;;;;;;;;;;;;;31.21;29.03;96528.69;4250025;27;5201;-66
2022/06/20 12:09:28;;;;;;;;;;;;;;;31.24;28.93;96522.56;4250830;27;5630;-66
2022/06/20 12:11:45;;;;;;;;;;;;;;;31.23;28.90;96522.88;4244906;27;5896;-66
2022/06/20 12:13:59;;;;;;;;;;;;;;;31.25;28.91;96510.50;4247673;27;5839;-65
2022/06/20 12:16:15;;;;;;;;;;;;;;;31.27;28.99;96510.19;4245218;27;5719;-68
2022/06/20 12:18:39;;;;;;;;;;;;;;;31.27;29.06;96507.47;4250889;27;5732;-66
2022/06/20 12:23:20;;;;;;;;;;;;;;;31.29;28.81;96503.25;4251346;27;5644;-66
2022/06/20 12:25:33;;;;;;;;;;;;;;;31.34;28.73;96493.25;4250701;27;5648;-66
2022/06/20 12:27:36;;;;;;;;;;;;;;;31.35;28.75;96495.63;4249873;27;5737;-66
2022/06/20 12:29:40;;;;;;;;;;;;;;;31.37;28.85;96498.03;4255611;27;5714;-65
2022/06/20 12:31:48;;;;;;;;;;;;;;;31.37;28.88;96498.03;4253971;27;6359;-66
2022/06/20 12:33:55;;;;;;;;;;;;;;;31.35;28.79;96490.19;4249742;27;5863;-66
2022/06/20 12:36:06;;;;;;;;;;;;;;;31.38;28.68;96492.25;4248581;27;5636;-65
2022/06/20 12:38:14;;;;;;;;;;;;;;;31.40;29.06;96491.94;4252843;27;5744;-66
2022/06/20 12:40:27;;;;;;;;;;;;;;;31.42;28.71;96490.44;4253262;27;6415;-66
2022/06/20 12:42:43;;;;;;;;;;;;;;;31.42;28.73;96485.00;4247669;27;5738;-65
2022/06/20 12:44:58;;;;;;;;;;;;;;;31.49;28.93;96488.00;4246434;27;5739;-65
2022/06/20 12:47:20;;;;;;;;;;;;;;;31.51;28.98;96479.44;4245760;27;6294;-66
2022/06/20 12:49:57;;;;;;;;;;;;;;;31.52;28.83;96478.31;4249871;27;5722;-66
2022/06/20 12:52:12;;;;;;;;;;;;;;;31.56;28.81;96465.56;4248998;27;5723;-67
2022/06/20 12:54:29;;;;;;;;;;;;;;;31.56;28.94;96479.22;4248450;27;5698;-66
2022/06/20 12:56:49;;;;;;;;;;;;;;;31.58;28.80;96469.56;4246865;27;5632;-66
2022/06/20 12:59:18;;;;;;;;;;;;;;;31.55;28.96;96462.03;4252220;27;6277;-66
2022/06/20 13:01:28;;;;;;;;;;;;;;;31.63;29.07;96467.78;4254090;27;5625;-66
2022/06/20 13:04:09;;;;;;;;;;;;;;;31.64;29.16;96470.16;4248637;27;5891;-66
2022/06/20 13:06:34;;;;;;;;;;;;;;;31.65;29.30;96460.81;4243478;27;7704;-66
2022/06/20 13:08:54;;;;;;;;;;;;;;;31.64;29.29;96464.69;4250167;27;5612;-66
2022/06/20 13:11:11;;;;;;;;;;;;;;;31.64;29.16;96453.75;4252831;27;5627;-66
2022/06/20 13:13:35;;;;;;;;;;;;;;;31.65;29.12;96452.63;4250688;27;5775;-66
2022/06/20 13:15:45;;;;;;;;;;;;;;;31.69;29.04;96445.34;4241885;27;5844;-67
2022/06/20 13:18:00;;;;;;;;;;;;;;;31.75;29.09;96452.22;4242308;27;6179;-67
2022/06/20 13:20:38;;;;;;;;;;;;;;;31.81;29.26;96458.25;4250731;27;5647;-66
2022/06/20 13:22:50;;;;;;;;;;;;;;;31.83;29.04;96451.34;4253292;27;5846;-66
2022/06/20 13:25:03;;;;;;;;;;;;;;;31.81;29.00;96448.13;4252823;27;5625;-66
2022/06/20 13:27:21;;;;;;;;;;;;;;;31.80;29.17;96441.06;4253374;27;5639;-67
2022/06/20 13:29:36;;;;;;;;;;;;;;;31.78;29.28;96440.63;4250521;27;5781;-66
2022/06/20 13:31:48;;;;;;;;;;;;;;;31.77;28.93;96435.50;4251290;27;5687;-66
2022/06/20 13:34:03;;;;;;;;;;;;;;;31.78;28.95;96442.56;4240348;27;5648;-66
2022/06/20 13:36:20;;;;;;;;;;;;;;;31.79;28.96;96444.16;4253865;27;5612;-66
2022/06/20 13:38:30;;;;;;;;;;;;;;;31.81;28.55;96437.19;4253600;27;5640;-67
2022/06/20 13:40:49;;;;;;;;;;;;;;;31.85;28.86;96437.34;4249058;27;5674;-66
2022/06/20 13:43:04;;;;;;;;;;;;;;;31.85;28.64;96435.41;4235132;27;5724;-66
2022/06/20 13:45:21;;;;;;;;;;;;;;;31.88;28.66;96438.59;4253172;27;5751;-66
2022/06/20 13:47:29;;;;;;;;;;;;;;;31.90;28.58;96434.38;4253041;27;5616;-66
2022/06/20 13:49:41;;;;;;;;;;;;;;;31.91;28.55;96429.72;4253023;27;5643;-66
2022/06/20 13:51:51;;;;;;;;;;;;;;;31.94;28.80;96426.28;4253147;27;6383;-66
2022/06/20 13:54:11;;;;;;;;;;;;;;;31.94;28.65;96429.84;4247960;27;5660;-67
2022/06/20 13:56:26;;;;;;;;;;;;;;;31.96;28.42;96422.09;4250132;27;5731;-67
2022/06/20 13:58:38;;;;;;;;;;;;;;;31.99;28.14;96426.88;4251481;27;5625;-66
2022/06/20 14:00:42;;;;;;;;;;;;;;;32.02;28.26;96419.94;4251641;27;5640;-66
2022/06/20 14:03:18;;;;;;;;;;;;;;;32.05;28.35;96402.84;4248803;27;5632;-66
2022/06/20 14:05:24;;;;;;;;;;;;;;;32.04;28.29;96407.50;4245050;27;7078;-66
2022/06/20 14:07:31;;;;;;;;;;;;;;;32.07;28.10;96398.63;4251181;27;5516;-67
2022/06/20 14:09:39;;;;;;;;;;;;;;;32.08;28.21;96407.63;4247143;27;5719;-67
2022/06/20 14:11:48;;;;;;;;;;;;;;;32.08;28.21;96407.63;4252718;27;5628;-65
2022/06/20 14:13:53;;;;;;;;;;;;;;;32.08;28.10;96402.16;4253062;27;5649;-66
2022/06/20 14:16:17;;;;;;;;;;;;;;;32.08;28.18;96404.91;4252789;27;5636;-66
2022/06/20 14:18:25;;;;;;;;;;;;;;;32.06;28.02;96398.97;4252859;27;5631;-65
2022/06/20 14:20:32;;;;;;;;;;;;;;;32.08;27.63;96396.69;4252755;27;5632;-66
2022/06/20 14:22:44;;;;;;;;;;;;;;;32.13;27.78;96404.66;4252717;27;5710;-65
2022/06/20 14:24:52;;;;;;;;;;;;;;;32.14;27.75;96404.31;4251157;27;5594;-65
2022/06/20 14:27:04;;;;;;;;;;;;;;;32.16;27.53;96393.03;4251326;27;5693;-66
2022/06/20 14:29:16;;;;;;;;;;;;;;;32.15;27.95;96396.91;4251224;27;7674;-75
2022/06/20 14:31:23;;;;;;;;;;;;;;;32.13;27.95;96401.94;4252770;27;5702;-71
2022/06/20 14:33:32;;;;;;;;;;;;;;;32.12;27.79;96401.13;4251052;27;6554;-70
2022/06/20 14:35:48;;;;;;;;;;;;;;;32.12;27.78;96397.59;4252516;27;5631;-66
2022/06/20 14:37:59;;;;;;;;;;;;;;;32.12;27.71;96397.59;4252226;27;5660;-66
2022/06/20 14:40:06;;;;;;;;;;;;;;;32.11;27.93;96404.22;4245814;27;5648;-66
2022/06/20 14:42:12;;;;;;;;;;;;;;;32.14;27.59;96400.78;4252683;27;5625;-66
2022/06/20 14:44:30;;;;;;;;;;;;;;;32.12;27.61;96394.88;4246609;27;7686;-66
2022/06/20 14:46:50;;;;;;;;;;;;;;;32.13;27.67;96399.19;4252313;27;6310;-65
2022/06/20 14:48:59;;;;;;;;;;;;;;;32.13;27.77;96389.06;4252354;27;5649;-66
2022/06/20 14:51:08;;;;;;;;;;;;;;;32.17;27.44;96394.66;4252195;27;5628;-66
2022/06/20 14:53:22;;;;;;;;;;;;;;;32.18;27.29;96384.50;4252590;27;5078;-66
2022/06/20 14:55:38;;;;;;;;;;;;;;;32.16;27.28;96387.56;4249655;27;5645;-66
2022/06/20 14:57:45;;;;;;;;;;;;;;;32.14;27.83;96381.66;4252154;27;5075;-67
2022/06/20 14:59:58;;;;;;;;;;;;;;;32.14;27.38;96385.19;4252111;27;5637;-67
2022/06/20 15:02:11;;;;;;;;;;;;;;;32.16;27.43;96382.09;4234927;28;5907;-67
2022/06/20 15:04:20;;;;;;;;;;;;;;;32.20;27.54;96374.81;4235044;28;5649;-67
2022/06/20 15:06:26;;;;;;;;;;;;;;;32.19;27.71;96375.16;4235258;28;5088;-65
2022/06/20 15:08:34;;;;;;;;;;;;;;;32.23;27.36;96376.06;4235054;28;5650;-66
2022/06/20 15:10:48;;;;;;;;;;;;;;;32.25;27.60;96374.56;4234863;28;5658;-66
2022/06/20 15:12:54;;;;;;;;;;;;;;;32.25;27.12;96371.06;4240928;27;5692;-66
2022/06/20 15:15:02;;;;;;;;;;;;;;;32.23;27.38;96371.41;4252123;27;6423;-66
2022/06/20 15:17:15;;;;;;;;;;;;;;;32.22;27.32;96375.28;4252031;27;6200;-66
2022/06/20 15:19:31;;;;;;;;;;;;;;;32.27;27.21;96371.50;4251978;27;5632;-66
2022/06/20 15:21:43;;;;;;;;;;;;;;;32.34;27.13;96371.75;4251653;27;5621;-67
2022/06/20 15:23:56;;;;;;;;;;;;;;;32.37;27.25;96366.38;4249943;27;5633;-67
2022/06/20 15:26:09;;;;;;;;;;;;;;;32.40;27.26;96360.25;4251741;27;5737;-66
2022/06/20 15:28:16;;;;;;;;;;;;;;;32.41;26.94;96372.00;4249694;27;6347;-66
2022/06/20 15:30:25;;;;;;;;;;;;;;;32.47;26.94;96367.06;4251291;27;5636;-65
2022/06/20 15:32:35;;;;;;;;;;;;;;;32.46;26.71;96368.22;4249705;27;5581;-66
2022/06/20 15:34:42;;;;;;;;;;;;;;;32.43;26.77;96365.03;4251491;27;5628;-65
2022/06/20 15:36:47;;;;;;;;;;;;;;;32.43;26.59;96362.28;4251806;27;5640;-66
2022/06/20 15:39:13;;;;;;;;;;;;;;;32.40;26.67;96359.47;4251646;27;6302;-67
2022/06/20 15:41:48;;;;;;;;;;;;;;;32.39;26.74;96355.94;4251642;27;5711;-66
2022/06/20 15:43:56;;;;;;;;;;;;;;;32.39;26.91;96361.41;4247011;27;5648;-66
2022/06/20 15:46:03;;;;;;;;;;;;;;;32.40;26.92;96360.25;4251750;27;5587;-66
2022/06/20 15:48:16;;;;;;;;;;;;;;;32.40;26.70;96349.31;4250857;27;5670;-66
2022/06/20 15:50:25;;;;;;;;;;;;;;;32.42;26.54;96363.44;4250434;27;5591;-66
2022/06/20 15:52:56;;;;;;;;;;;;;;;32.42;26.73;96352.50;4250975;27;5595;-66